createdAt,value
2022-11-25T00:00:06.877Z,0.00
2022-11-25T00:01:06.873Z,0.00
2022-11-25T00:02:06.935Z,0.00
2022-11-25T00:03:06.944Z,0.00
2022-11-25T00:04:06.813Z,0.00
2022-11-25T00:05:06.852Z,0.00
2022-11-25T00:06:06.813Z,0.00
2022-11-25T00:07:06.840Z,0.00
2022-11-25T00:08:06.762Z,0.00
2022-11-25T00:09:06.779Z,0.00
2022-11-25T00:10:06.763Z,0.00
2022-11-25T00:11:06.762Z,0.00
2022-11-25T00:12:06.694Z,0.00
2022-11-25T00:13:06.729Z,0.00
2022-11-25T00:14:06.672Z,0.00
2022-11-25T00:15:06.714Z,0.00
2022-11-25T00:16:06.697Z,0.00
2022-11-25T00:17:06.706Z,0.00
2022-11-25T00:18:06.644Z,0.00
2022-11-25T00:19:06.645Z,0.00
2022-11-25T00:20:06.644Z,0.00
2022-11-25T00:21:06.602Z,0.00
2022-11-25T00:22:06.578Z,0.00
2022-11-25T00:23:06.586Z,0.00
2022-11-25T00:24:06.553Z,0.00
2022-11-25T00:25:06.592Z,0.00
2022-11-25T00:26:06.537Z,0.00
2022-11-25T00:27:06.546Z,0.00
2022-11-25T00:28:06.517Z,0.00
2022-11-25T00:29:06.510Z,0.00
2022-11-25T00:30:06.472Z,0.00
2022-11-25T00:31:06.481Z,0.00
2022-11-25T00:32:06.521Z,0.00
2022-11-25T00:33:06.477Z,0.00
2022-11-25T00:34:06.448Z,0.00
2022-11-25T00:35:06.442Z,0.00
2022-11-25T00:36:06.409Z,0.00
2022-11-25T00:37:06.405Z,0.00
2022-11-25T00:38:06.404Z,0.00
2022-11-25T00:39:06.389Z,0.00
2022-11-25T00:40:06.339Z,0.00
2022-11-25T00:41:06.357Z,0.00
2022-11-25T00:42:06.331Z,0.00
2022-11-25T00:43:06.347Z,0.00
2022-11-25T00:44:06.283Z,0.00
2022-11-25T00:45:06.327Z,0.00
2022-11-25T00:46:06.328Z,0.00
2022-11-25T00:47:06.280Z,0.00
2022-11-25T00:48:06.246Z,0.00
2022-11-25T00:49:06.244Z,0.00
2022-11-25T00:50:06.256Z,0.00
2022-11-25T00:51:06.235Z,0.00
2022-11-25T00:52:06.198Z,0.00
2022-11-25T00:53:06.224Z,0.00
2022-11-25T00:54:06.157Z,0.00
2022-11-25T00:55:06.221Z,0.00
2022-11-25T00:56:06.135Z,0.00
2022-11-25T00:57:06.152Z,0.00
2022-11-25T00:58:06.108Z,0.00
2022-11-25T00:59:06.135Z,0.00
2022-11-25T01:00:06.147Z,0.00
2022-11-25T01:01:06.171Z,0.00
2022-11-25T01:02:06.113Z,0.00
2022-11-25T01:03:06.071Z,0.00
2022-11-25T01:04:06.035Z,0.00
2022-11-25T01:05:06.045Z,0.00
2022-11-25T01:06:06.034Z,0.00
2022-11-25T01:07:06.031Z,0.00
2022-11-25T01:08:05.984Z,0.00
2022-11-25T01:09:06.000Z,0.00
2022-11-25T01:10:05.968Z,0.00
2022-11-25T01:11:05.987Z,0.00
2022-11-25T01:12:05.949Z,0.00
2022-11-25T01:13:05.955Z,0.00
2022-11-25T01:14:05.907Z,0.00
2022-11-25T01:15:05.915Z,0.00
2022-11-25T01:16:05.940Z,0.00
2022-11-25T01:17:05.914Z,0.00
2022-11-25T01:18:05.845Z,0.00
2022-11-25T01:19:05.898Z,0.00
2022-11-25T01:20:05.868Z,0.00
2022-11-25T01:21:05.858Z,0.00
2022-11-25T01:22:05.801Z,0.00
2022-11-25T01:23:05.822Z,0.00
2022-11-25T01:24:05.780Z,0.00
2022-11-25T01:25:05.820Z,0.00
2022-11-25T01:26:05.756Z,0.00
2022-11-25T01:27:05.757Z,0.00
2022-11-25T01:28:05.748Z,0.00
2022-11-25T01:29:05.783Z,0.00
2022-11-25T01:30:05.694Z,0.00
2022-11-25T01:31:05.712Z,0.00
2022-11-25T01:32:05.793Z,0.00
2022-11-25T01:33:05.660Z,0.00
2022-11-25T01:34:05.700Z,0.00
2022-11-25T01:35:05.646Z,0.00
2022-11-25T01:36:05.646Z,0.00
2022-11-25T01:37:05.627Z,0.00
2022-11-25T01:38:05.623Z,0.00
2022-11-25T01:39:05.594Z,0.00
2022-11-25T01:40:05.617Z,0.00
2022-11-25T01:41:06.523Z,0.00
2022-11-25T01:42:05.564Z,0.00
2022-11-25T01:43:05.540Z,0.00
2022-11-25T01:44:05.542Z,0.00
2022-11-25T01:45:05.511Z,0.00
2022-11-25T01:46:05.622Z,0.00
2022-11-25T01:47:05.492Z,0.00
2022-11-25T01:48:05.498Z,0.00
2022-11-25T01:49:05.502Z,0.00
2022-11-25T01:50:05.492Z,0.00
2022-11-25T01:51:05.439Z,0.00
2022-11-25T01:52:05.478Z,0.00
2022-11-25T01:53:05.399Z,0.00
2022-11-25T01:54:05.431Z,0.00
2022-11-25T01:55:05.372Z,0.00
2022-11-25T01:56:05.389Z,0.00
2022-11-25T01:57:05.372Z,0.00
2022-11-25T01:58:05.361Z,0.00
2022-11-25T01:59:05.326Z,0.00
2022-11-25T02:00:05.363Z,0.00
2022-11-25T02:01:05.392Z,0.00
2022-11-25T02:02:05.366Z,0.00
2022-11-25T02:03:05.274Z,0.00
2022-11-25T02:04:05.319Z,0.00
2022-11-25T02:05:05.254Z,0.00
2022-11-25T02:06:05.259Z,0.00
2022-11-25T02:07:05.255Z,0.00
2022-11-25T02:08:05.240Z,0.00
2022-11-25T02:09:05.221Z,0.00
2022-11-25T02:10:05.204Z,0.00
2022-11-25T02:11:05.178Z,0.00
2022-11-25T02:12:05.191Z,0.00
2022-11-25T02:13:05.173Z,0.00
2022-11-25T02:14:05.163Z,0.00
2022-11-25T02:15:05.124Z,0.00
2022-11-25T02:16:05.198Z,0.00
2022-11-25T02:17:05.094Z,0.00
2022-11-25T02:18:05.116Z,0.00
2022-11-25T02:19:05.095Z,0.00
2022-11-25T02:20:05.176Z,0.00
2022-11-25T02:21:05.068Z,0.00
2022-11-25T02:22:05.069Z,0.00
2022-11-25T02:23:05.024Z,0.00
2022-11-25T02:24:05.053Z,0.00
2022-11-25T02:25:05.004Z,0.00
2022-11-25T02:26:05.025Z,0.00
2022-11-25T02:27:04.974Z,0.00
2022-11-25T02:28:04.981Z,0.00
2022-11-25T02:29:04.939Z,0.00
2022-11-25T02:30:04.988Z,0.00
2022-11-25T02:31:04.941Z,0.00
2022-11-25T02:32:04.982Z,0.00
2022-11-25T02:33:04.876Z,0.00
2022-11-25T02:34:04.899Z,0.00
2022-11-25T02:35:04.873Z,0.00
2022-11-25T02:36:04.896Z,0.00
2022-11-25T02:37:04.852Z,0.00
2022-11-25T02:38:04.837Z,0.00
2022-11-25T02:39:04.825Z,0.00
2022-11-25T02:40:04.828Z,0.00
2022-11-25T02:41:04.807Z,0.00
2022-11-25T02:42:04.807Z,0.00
2022-11-25T02:43:04.780Z,0.00
2022-11-25T02:44:04.772Z,0.00
2022-11-25T02:45:04.726Z,0.00
2022-11-25T02:46:04.869Z,0.00
2022-11-25T02:47:04.716Z,0.00
2022-11-25T02:48:04.756Z,0.00
2022-11-25T02:49:09.264Z,0.00
2022-11-25T02:50:04.708Z,0.00
2022-11-25T02:51:04.679Z,0.00
2022-11-25T02:52:04.675Z,0.00
2022-11-25T02:53:04.635Z,0.00
2022-11-25T02:54:04.680Z,0.00
2022-11-25T02:55:04.604Z,0.00
2022-11-25T02:56:04.630Z,0.00
2022-11-25T02:57:04.589Z,0.00
2022-11-25T02:58:04.613Z,0.00
2022-11-25T02:59:04.580Z,0.00
2022-11-25T03:00:04.586Z,0.00
2022-11-25T03:01:04.578Z,0.00
2022-11-25T03:02:04.609Z,0.00
2022-11-25T03:03:04.492Z,0.00
2022-11-25T03:04:04.527Z,0.00
2022-11-25T03:05:04.479Z,0.00
2022-11-25T03:06:04.483Z,0.00
2022-11-25T03:07:04.468Z,0.00
2022-11-25T03:08:04.479Z,0.00
2022-11-25T03:09:04.442Z,0.00
2022-11-25T03:10:04.448Z,0.00
2022-11-25T03:11:04.397Z,0.00
2022-11-25T03:12:04.452Z,0.00
2022-11-25T03:13:04.381Z,0.00
2022-11-25T03:14:04.385Z,0.00
2022-11-25T03:15:04.381Z,0.00
2022-11-25T03:16:04.410Z,0.00
2022-11-25T03:17:04.335Z,0.00
2022-11-25T03:18:04.329Z,0.00
2022-11-25T03:19:04.329Z,0.00
2022-11-25T03:20:04.316Z,0.00
2022-11-25T03:21:04.304Z,0.00
2022-11-25T03:22:04.327Z,0.00
2022-11-25T03:23:04.270Z,0.00
2022-11-25T03:24:04.291Z,0.00
2022-11-25T03:25:04.223Z,0.00
2022-11-25T03:26:04.233Z,0.00
2022-11-25T03:27:04.229Z,0.00
2022-11-25T03:28:04.217Z,0.00
2022-11-25T03:29:04.174Z,0.00
2022-11-25T03:30:04.185Z,0.00
2022-11-25T03:31:04.137Z,0.00
2022-11-25T03:32:08.173Z,0.00
2022-11-25T03:33:04.137Z,0.00
2022-11-25T03:34:04.130Z,0.00
2022-11-25T03:35:04.094Z,0.00
2022-11-25T03:36:04.110Z,0.00
2022-11-25T03:37:04.225Z,0.00
2022-11-25T03:38:04.098Z,0.00
2022-11-25T03:39:04.044Z,0.00
2022-11-25T03:40:04.056Z,0.00
2022-11-25T03:41:04.016Z,0.00
2022-11-25T03:42:04.065Z,0.00
2022-11-25T03:43:03.989Z,0.00
2022-11-25T03:44:04.013Z,0.00
2022-11-25T03:45:03.966Z,0.00
2022-11-25T03:46:03.995Z,0.00
2022-11-25T03:47:03.939Z,0.00
2022-11-25T03:48:03.953Z,0.00
2022-11-25T03:49:03.929Z,0.00
2022-11-25T03:50:03.959Z,0.00
2022-11-25T03:51:03.883Z,0.00
2022-11-25T03:52:03.900Z,0.00
2022-11-25T03:53:03.858Z,0.00
2022-11-25T03:54:03.890Z,0.00
2022-11-25T03:55:03.838Z,0.00
2022-11-25T03:56:03.839Z,0.00
2022-11-25T03:57:03.816Z,0.00
2022-11-25T03:58:03.848Z,0.00
2022-11-25T03:59:03.809Z,0.00
2022-11-25T04:00:03.797Z,0.00
2022-11-25T04:01:03.807Z,0.00
2022-11-25T04:02:03.828Z,0.00
2022-11-25T04:03:03.729Z,0.00
2022-11-25T04:04:03.763Z,0.00
2022-11-25T04:05:03.703Z,0.00
2022-11-25T04:06:03.725Z,0.00
2022-11-25T04:07:03.681Z,0.00
2022-11-25T04:08:03.746Z,0.00
2022-11-25T04:09:03.687Z,0.00
2022-11-25T04:10:03.672Z,0.00
2022-11-25T04:11:03.633Z,0.00
2022-11-25T04:12:03.642Z,0.00
2022-11-25T04:13:03.618Z,0.00
2022-11-25T04:14:03.641Z,0.00
2022-11-25T04:15:03.603Z,0.00
2022-11-25T04:16:03.585Z,0.00
2022-11-25T04:17:03.613Z,0.00
2022-11-25T04:18:03.565Z,0.00
2022-11-25T04:19:03.546Z,0.00
2022-11-25T04:20:03.559Z,0.00
2022-11-25T04:21:03.497Z,0.00
2022-11-25T04:22:03.536Z,0.00
2022-11-25T04:23:03.496Z,0.00
2022-11-25T04:24:03.486Z,0.00
2022-11-25T04:25:03.471Z,0.00
2022-11-25T04:26:03.491Z,0.00
2022-11-25T04:27:03.433Z,0.00
2022-11-25T04:28:03.443Z,0.00
2022-11-25T04:29:03.396Z,0.00
2022-11-25T04:30:03.437Z,0.00
2022-11-25T04:31:03.401Z,0.00
2022-11-25T04:32:03.390Z,0.00
2022-11-25T04:33:03.369Z,0.00
2022-11-25T04:34:03.363Z,0.00
2022-11-25T04:35:03.329Z,0.00
2022-11-25T04:36:03.364Z,0.00
2022-11-25T04:37:03.297Z,0.00
2022-11-25T04:38:03.308Z,0.00
2022-11-25T04:39:03.301Z,0.00
2022-11-25T04:40:03.286Z,0.00
2022-11-25T04:41:03.243Z,0.00
2022-11-25T04:42:03.256Z,0.00
2022-11-25T04:43:09.040Z,0.00
2022-11-25T04:44:03.234Z,0.00
2022-11-25T04:46:18.718Z,0.00
2022-11-25T04:47:03.268Z,0.00
2022-11-25T04:48:03.215Z,0.00
2022-11-25T04:49:03.158Z,0.00
2022-11-25T04:50:03.164Z,0.00
2022-11-25T04:51:03.126Z,0.00
2022-11-25T04:52:03.154Z,0.00
2022-11-25T04:53:03.100Z,0.00
2022-11-25T04:54:03.131Z,0.00
2022-11-25T04:55:03.068Z,0.00
2022-11-25T04:56:03.088Z,0.00
2022-11-25T04:57:03.033Z,0.00
2022-11-25T04:58:03.062Z,0.00
2022-11-25T04:59:03.039Z,0.00
2022-11-25T05:00:03.040Z,0.00
2022-11-25T05:01:03.020Z,0.00
2022-11-25T05:02:03.039Z,0.00
2022-11-25T05:03:02.985Z,0.00
2022-11-25T05:04:02.979Z,0.00
2022-11-25T05:05:02.954Z,0.00
2022-11-25T05:06:02.955Z,0.00
2022-11-25T05:07:02.929Z,0.00
2022-11-25T05:08:02.953Z,0.00
2022-11-25T05:09:02.908Z,0.00
2022-11-25T05:10:02.896Z,0.00
2022-11-25T05:11:02.854Z,0.00
2022-11-25T05:12:02.906Z,0.00
2022-11-25T05:13:02.856Z,0.00
2022-11-25T05:14:02.882Z,0.00
2022-11-25T05:15:02.818Z,0.00
2022-11-25T05:16:02.815Z,0.00
2022-11-25T05:17:02.880Z,0.00
2022-11-25T05:18:02.807Z,0.00
2022-11-25T05:19:02.857Z,0.00
2022-11-25T05:20:02.780Z,0.00
2022-11-25T05:21:02.733Z,0.00
2022-11-25T05:22:02.742Z,0.00
2022-11-25T05:23:02.712Z,0.00
2022-11-25T05:24:02.741Z,0.00
2022-11-25T05:25:02.680Z,0.00
2022-11-25T05:26:02.694Z,0.00
2022-11-25T05:27:02.663Z,0.00
2022-11-25T05:28:02.676Z,0.00
2022-11-25T05:29:03.210Z,0.00
2022-11-25T05:30:02.661Z,0.00
2022-11-25T05:31:02.697Z,0.00
2022-11-25T05:32:02.606Z,0.00
2022-11-25T05:33:02.610Z,0.00
2022-11-25T05:34:02.612Z,0.00
2022-11-25T05:35:02.571Z,0.00
2022-11-25T05:36:02.571Z,0.00
2022-11-25T05:37:02.551Z,0.00
2022-11-25T05:38:02.546Z,0.00
2022-11-25T05:39:02.503Z,0.00
2022-11-25T05:40:02.550Z,0.00
2022-11-25T05:41:02.511Z,0.00
2022-11-25T05:42:02.487Z,0.00
2022-11-25T05:43:02.450Z,0.00
2022-11-25T05:44:02.461Z,0.00
2022-11-25T05:45:02.463Z,0.00
2022-11-25T05:46:02.482Z,0.00
2022-11-25T05:47:02.422Z,0.00
2022-11-25T05:48:02.398Z,0.00
2022-11-25T05:49:02.466Z,0.00
2022-11-25T05:50:02.358Z,0.00
2022-11-25T05:51:02.402Z,0.00
2022-11-25T05:52:02.370Z,0.00
2022-11-25T05:53:02.348Z,0.00
2022-11-25T05:54:02.323Z,0.00
2022-11-25T05:55:02.331Z,0.00
2022-11-25T05:56:02.425Z,0.00
2022-11-25T05:57:02.350Z,0.00
2022-11-25T05:58:02.257Z,0.00
2022-11-25T05:59:02.277Z,0.00
2022-11-25T06:00:02.255Z,0.00
2022-11-25T06:01:02.252Z,0.00
2022-11-25T06:02:02.655Z,0.00
2022-11-25T06:03:02.383Z,0.00
2022-11-25T06:04:02.231Z,0.00
2022-11-25T06:05:02.231Z,0.00
2022-11-25T06:06:02.160Z,0.00
2022-11-25T06:07:02.185Z,0.00
2022-11-25T06:08:02.146Z,0.00
2022-11-25T06:09:02.145Z,0.00
2022-11-25T06:10:03.492Z,0.00
2022-11-25T06:11:02.138Z,0.00
2022-11-25T06:12:02.107Z,0.00
2022-11-25T06:13:02.113Z,0.00
2022-11-25T06:14:02.063Z,0.00
2022-11-25T06:15:02.083Z,0.00
2022-11-25T06:16:07.558Z,0.00
2022-11-25T06:17:02.047Z,0.00
2022-11-25T06:18:02.005Z,0.00
2022-11-25T06:19:02.078Z,0.00
2022-11-25T06:20:01.986Z,0.00
2022-11-25T06:21:02.035Z,0.00
2022-11-25T06:22:01.988Z,0.00
2022-11-25T06:23:01.960Z,0.00
2022-11-25T06:24:01.937Z,0.00
2022-11-25T06:25:03.900Z,0.00
2022-11-25T06:26:01.920Z,0.00
2022-11-25T06:27:01.941Z,0.00
2022-11-25T06:28:17.270Z,0.00
2022-11-25T06:29:01.899Z,0.00
2022-11-25T06:30:01.884Z,0.00
2022-11-25T06:31:01.971Z,0.00
2022-11-25T06:32:01.874Z,0.00
2022-11-25T06:33:01.827Z,0.00
2022-11-25T06:34:01.789Z,0.00
2022-11-25T06:35:01.804Z,0.00
2022-11-25T06:36:01.809Z,0.00
2022-11-25T06:37:01.804Z,0.00
2022-11-25T06:38:01.743Z,0.00
2022-11-25T06:39:01.752Z,0.00
2022-11-25T06:40:01.712Z,0.00
2022-11-25T06:41:01.734Z,0.00
2022-11-25T06:42:01.724Z,0.00
2022-11-25T06:43:01.704Z,0.00
2022-11-25T06:44:01.673Z,0.00
2022-11-25T06:45:01.685Z,0.00
2022-11-25T06:46:01.662Z,0.00
2022-11-25T06:47:01.684Z,0.00
2022-11-25T06:48:01.606Z,4.00
2022-11-25T06:49:01.628Z,0.00
2022-11-25T06:50:01.579Z,0.00
2022-11-25T06:51:01.617Z,4.00
2022-11-25T06:52:01.590Z,4.00
2022-11-25T06:53:01.583Z,0.00
2022-11-25T06:54:01.541Z,4.00
2022-11-25T06:55:01.550Z,0.00
2022-11-25T06:56:01.542Z,0.00
2022-11-25T06:57:01.523Z,4.00
2022-11-25T06:58:20.555Z,4.00
2022-11-25T06:59:01.500Z,4.00
2022-11-25T07:00:01.467Z,4.00
2022-11-25T07:01:01.467Z,4.00
2022-11-25T07:02:01.536Z,4.00
2022-11-25T07:03:01.491Z,4.00
2022-11-25T07:04:01.418Z,4.00
2022-11-25T07:05:01.425Z,4.00
2022-11-25T07:06:01.399Z,4.00
2022-11-25T07:07:01.423Z,4.00
2022-11-25T07:08:01.378Z,4.00
2022-11-25T07:09:01.397Z,4.00
2022-11-25T07:10:01.339Z,8.00
2022-11-25T07:11:01.363Z,4.00
2022-11-25T07:12:01.341Z,8.00
2022-11-25T07:13:01.342Z,8.00
2022-11-25T07:14:01.289Z,8.00
2022-11-25T07:15:01.365Z,8.00
2022-11-25T07:16:01.311Z,8.00
2022-11-25T07:17:01.270Z,8.00
2022-11-25T07:18:01.237Z,8.00
2022-11-25T07:19:01.246Z,12.00
2022-11-25T07:20:01.201Z,12.00
2022-11-25T07:21:01.238Z,16.00
2022-11-25T07:22:01.200Z,12.00
2022-11-25T07:23:01.189Z,16.00
2022-11-25T07:24:01.170Z,16.00
2022-11-25T07:25:01.159Z,16.00
2022-11-25T07:26:01.141Z,16.00
2022-11-25T07:27:01.171Z,16.00
2022-11-25T07:28:01.101Z,16.00
2022-11-25T07:29:01.116Z,16.00
2022-11-25T07:30:41.478Z,16.00
2022-11-25T07:31:32.861Z,16.00
2022-11-25T07:32:04.423Z,16.00
2022-11-25T07:33:01.097Z,16.00
2022-11-25T07:34:01.104Z,16.00
2022-11-25T07:35:01.048Z,16.00
2022-11-25T07:36:01.003Z,12.00
2022-11-25T07:37:01.017Z,12.00
2022-11-25T07:38:01.019Z,8.00
2022-11-25T07:39:00.989Z,12.00
2022-11-25T07:40:00.985Z,12.00
2022-11-25T07:41:00.963Z,16.00
2022-11-25T07:42:00.947Z,12.00
2022-11-25T07:43:00.949Z,16.00
2022-11-25T07:44:00.918Z,12.00
2022-11-25T07:45:00.937Z,12.00
2022-11-25T07:46:00.913Z,12.00
2022-11-25T07:47:00.939Z,12.00
2022-11-25T07:48:00.884Z,12.00
2022-11-25T07:49:00.880Z,12.00
2022-11-25T07:50:00.848Z,8.00
2022-11-25T07:51:00.849Z,12.00
2022-11-25T07:52:00.794Z,12.00
2022-11-25T07:53:00.829Z,12.00
2022-11-25T07:54:00.771Z,12.00
2022-11-25T07:55:00.811Z,12.00
2022-11-25T07:56:00.734Z,20.00
2022-11-25T07:57:00.773Z,24.00
2022-11-25T07:58:00.723Z,28.00
2022-11-25T07:59:00.733Z,32.00
2022-11-25T08:00:00.731Z,32.00
2022-11-25T08:01:00.706Z,36.00
2022-11-25T08:02:00.835Z,40.00
2022-11-25T08:03:00.739Z,44.00
2022-11-25T08:04:00.633Z,52.00
2022-11-25T08:05:00.658Z,56.00
2022-11-25T08:06:00.620Z,56.00
2022-11-25T08:07:00.632Z,52.00
2022-11-25T08:08:00.689Z,52.00
2022-11-25T08:09:00.601Z,48.00
2022-11-25T08:10:00.580Z,48.00
2022-11-25T08:11:00.588Z,44.00
2022-11-25T08:12:00.535Z,36.00
2022-11-25T08:13:00.570Z,36.00
2022-11-25T08:14:00.515Z,40.00
2022-11-25T08:15:00.531Z,36.00
2022-11-25T08:16:00.548Z,36.00
2022-11-25T08:17:00.503Z,32.00
2022-11-25T08:18:00.500Z,32.00
2022-11-25T08:19:00.469Z,36.00
2022-11-25T08:20:00.444Z,32.00
2022-11-25T08:21:00.448Z,28.00
2022-11-25T08:22:00.408Z,24.00
2022-11-25T08:23:00.466Z,28.00
2022-11-25T08:24:00.391Z,24.00
2022-11-25T08:25:00.398Z,24.00
2022-11-25T08:26:00.353Z,24.00
2022-11-25T08:27:00.372Z,24.00
2022-11-25T08:28:00.356Z,24.00
2022-11-25T08:29:00.372Z,24.00
2022-11-25T08:30:00.314Z,28.00
2022-11-25T08:31:00.389Z,28.00
2022-11-25T08:32:00.270Z,24.00
2022-11-25T08:33:00.322Z,24.00
2022-11-25T08:34:00.256Z,24.00
2022-11-25T08:35:00.273Z,24.00
2022-11-25T08:36:00.228Z,28.00
2022-11-25T08:37:00.225Z,40.00
2022-11-25T08:38:00.225Z,32.00
2022-11-25T08:39:00.242Z,32.00
2022-11-25T08:40:00.799Z,32.00
2022-11-25T08:41:00.179Z,40.00
2022-11-25T08:42:00.139Z,36.00
2022-11-25T08:43:00.221Z,28.00
2022-11-25T08:44:00.129Z,24.00
2022-11-25T08:45:00.157Z,24.00
2022-11-25T08:46:00.136Z,16.00
2022-11-25T08:47:00.264Z,16.00
2022-11-25T08:48:00.080Z,16.00
2022-11-25T08:49:00.094Z,12.00
2022-11-25T08:50:00.052Z,12.00
2022-11-25T08:51:00.054Z,8.00
2022-11-25T08:52:00.015Z,12.00
2022-11-25T08:53:00.043Z,12.00
2022-11-25T08:54:00.011Z,12.00
2022-11-25T08:55:00.015Z,12.00
2022-11-25T08:56:00.126Z,12.00
2022-11-25T08:56:59.970Z,16.00
2022-11-25T08:57:59.935Z,16.00
2022-11-25T08:58:59.945Z,20.00
2022-11-25T08:59:59.943Z,20.00
2022-11-25T09:00:59.920Z,24.00
2022-11-25T09:01:59.940Z,24.00
2022-11-25T09:03:00.035Z,20.00
2022-11-25T09:03:59.873Z,20.00
2022-11-25T09:04:59.889Z,16.00
2022-11-25T09:05:59.830Z,16.00
2022-11-25T09:06:59.887Z,20.00
2022-11-25T09:07:59.897Z,20.00
2022-11-25T09:08:59.846Z,20.00
2022-11-25T09:09:59.801Z,20.00
2022-11-25T09:10:59.918Z,16.00
2022-11-25T09:11:59.773Z,16.00
2022-11-25T09:12:59.770Z,20.00
2022-11-25T09:13:59.819Z,24.00
2022-11-25T09:14:59.775Z,24.00
2022-11-25T09:15:59.801Z,24.00
2022-11-25T09:16:59.740Z,28.00
2022-11-25T09:17:59.675Z,28.00
2022-11-25T09:18:59.690Z,28.00
2022-11-25T09:19:59.674Z,28.00
2022-11-25T09:20:59.656Z,32.00
2022-11-25T09:21:59.623Z,32.00
2022-11-25T09:22:59.628Z,36.00
2022-11-25T09:23:59.603Z,44.00
2022-11-25T09:24:59.610Z,48.00
2022-11-25T09:25:59.609Z,52.00
2022-11-25T09:26:59.602Z,56.00
2022-11-25T09:27:59.552Z,48.00
2022-11-25T09:28:59.595Z,40.00
2022-11-25T09:29:59.562Z,36.00
2022-11-25T09:30:59.576Z,32.00
2022-11-25T09:31:59.636Z,32.00
2022-11-25T09:32:59.501Z,28.00
2022-11-25T09:33:59.502Z,24.00
2022-11-25T09:34:59.519Z,24.00
2022-11-25T09:35:59.476Z,28.00
2022-11-25T09:36:59.457Z,32.00
2022-11-25T09:37:59.450Z,32.00
2022-11-25T09:38:59.430Z,32.00
2022-11-25T09:39:59.417Z,32.00
2022-11-25T09:40:59.401Z,36.00
2022-11-25T09:41:59.353Z,32.00
2022-11-25T09:42:59.409Z,32.00
2022-11-25T09:43:59.335Z,36.00
2022-11-25T09:44:59.404Z,36.00
2022-11-25T09:45:59.355Z,36.00
2022-11-25T09:46:59.382Z,36.00
2022-11-25T09:47:59.279Z,40.00
2022-11-25T09:48:59.305Z,36.00
2022-11-25T09:49:59.292Z,40.00
2022-11-25T09:50:59.281Z,40.00
2022-11-25T09:51:59.225Z,40.00
2022-11-25T09:52:59.272Z,44.00
2022-11-25T09:53:59.207Z,48.00
2022-11-25T09:54:59.235Z,48.00
2022-11-25T09:56:01.617Z,48.00
2022-11-25T09:56:59.187Z,40.00
2022-11-25T09:57:59.810Z,36.00
2022-11-25T09:58:59.175Z,32.00
2022-11-25T09:59:59.181Z,24.00
2022-11-25T10:00:59.194Z,20.00
2022-11-25T10:01:59.195Z,16.00
2022-11-25T10:02:59.315Z,16.00
2022-11-25T10:03:59.177Z,20.00
2022-11-25T10:04:59.120Z,16.00
2022-11-25T10:05:59.117Z,20.00
2022-11-25T10:06:59.088Z,20.00
2022-11-25T10:07:59.066Z,20.00
2022-11-25T10:08:59.020Z,20.00
2022-11-25T10:09:59.018Z,20.00
2022-11-25T10:10:58.984Z,20.00
2022-11-25T10:11:59.051Z,20.00
2022-11-25T10:12:58.952Z,20.00
2022-11-25T10:13:58.974Z,16.00
2022-11-25T10:14:58.933Z,16.00
2022-11-25T10:15:59.103Z,16.00
2022-11-25T10:16:58.920Z,20.00
2022-11-25T10:17:58.929Z,16.00
2022-11-25T10:18:58.889Z,16.00
2022-11-25T10:19:58.912Z,20.00
2022-11-25T10:20:58.877Z,20.00
2022-11-25T10:21:58.890Z,20.00
2022-11-25T10:22:58.830Z,20.00
2022-11-25T10:23:58.902Z,24.00
2022-11-25T10:24:58.809Z,24.00
2022-11-25T10:25:58.878Z,24.00
2022-11-25T10:26:58.791Z,20.00
2022-11-25T10:27:58.805Z,20.00
2022-11-25T10:28:58.786Z,20.00
2022-11-25T10:29:58.784Z,20.00
2022-11-25T10:30:58.782Z,20.00
2022-11-25T10:31:58.739Z,16.00
2022-11-25T10:33:02.356Z,20.00
2022-11-25T10:33:58.758Z,16.00
2022-11-25T10:34:58.689Z,20.00
2022-11-25T10:35:58.697Z,20.00
2022-11-25T10:36:58.664Z,20.00
2022-11-25T10:37:58.658Z,20.00
2022-11-25T10:38:58.690Z,20.00
2022-11-25T10:39:58.687Z,20.00
2022-11-25T10:40:58.586Z,20.00
2022-11-25T10:41:58.612Z,24.00
2022-11-25T10:42:58.574Z,24.00
2022-11-25T10:43:58.595Z,24.00
2022-11-25T10:44:58.566Z,20.00
2022-11-25T10:45:58.562Z,20.00
2022-11-25T10:47:13.492Z,20.00
2022-11-25T10:47:58.633Z,24.00
2022-11-25T10:48:58.528Z,24.00
2022-11-25T10:49:58.508Z,28.00
2022-11-25T10:50:58.467Z,32.00
2022-11-25T10:51:58.483Z,32.00
2022-11-25T10:52:58.521Z,32.00
2022-11-25T10:53:58.463Z,32.00
2022-11-25T10:54:58.440Z,36.00
2022-11-25T10:55:58.455Z,36.00
2022-11-25T10:56:58.424Z,40.00
2022-11-25T10:57:58.431Z,44.00
2022-11-25T10:58:58.367Z,48.00
2022-11-25T10:59:58.370Z,48.00
2022-11-25T11:00:58.336Z,48.00
2022-11-25T11:01:58.433Z,48.00
2022-11-25T11:02:58.385Z,52.00
2022-11-25T11:03:58.326Z,56.00
2022-11-25T11:04:58.295Z,60.00
2022-11-25T11:05:58.306Z,56.00
2022-11-25T11:06:58.277Z,56.00
2022-11-25T11:07:58.317Z,52.00
2022-11-25T11:08:58.237Z,52.00
2022-11-25T11:09:58.254Z,52.00
2022-11-25T11:10:58.224Z,52.00
2022-11-25T11:11:58.244Z,52.00
2022-11-25T11:12:58.207Z,52.00
2022-11-25T11:13:58.215Z,56.00
2022-11-25T11:14:58.187Z,60.00
2022-11-25T11:15:58.204Z,76.00
2022-11-25T11:16:58.134Z,84.00
2022-11-25T11:17:58.182Z,92.00
2022-11-25T11:18:58.101Z,88.00
2022-11-25T11:19:58.137Z,80.00
2022-11-25T11:20:58.101Z,96.00
2022-11-25T11:21:58.095Z,108.00
2022-11-25T11:22:58.067Z,112.00
2022-11-25T11:23:58.086Z,120.00
2022-11-25T11:24:58.053Z,124.00
2022-11-25T11:25:58.056Z,120.00
2022-11-25T11:26:58.007Z,112.00
2022-11-25T11:27:58.025Z,100.00
2022-11-25T11:28:58.018Z,84.00
2022-11-25T11:29:58.013Z,88.00
2022-11-25T11:30:57.969Z,88.00
2022-11-25T11:31:57.987Z,92.00
2022-11-25T11:32:57.990Z,92.00
2022-11-25T11:33:57.960Z,88.00
2022-11-25T11:34:57.904Z,88.00
2022-11-25T11:35:57.956Z,84.00
2022-11-25T11:36:57.903Z,88.00
2022-11-25T11:37:57.882Z,92.00
2022-11-25T11:38:57.853Z,100.00
2022-11-25T11:39:57.873Z,104.00
2022-11-25T11:40:57.849Z,104.00
2022-11-25T11:41:57.847Z,108.00
2022-11-25T11:42:57.810Z,112.00
2022-11-25T11:43:57.815Z,116.00
2022-11-25T11:44:57.772Z,116.00
2022-11-25T11:45:57.812Z,124.00
2022-11-25T11:46:57.823Z,120.00
2022-11-25T11:47:57.730Z,112.00
2022-11-25T11:48:57.763Z,104.00
2022-11-25T11:49:57.709Z,100.00
2022-11-25T11:50:57.756Z,96.00
2022-11-25T11:51:57.683Z,80.00
2022-11-25T11:52:57.696Z,72.00
2022-11-25T11:53:57.657Z,68.00
2022-11-25T11:54:57.673Z,68.00
2022-11-25T11:56:27.044Z,64.00
2022-11-25T11:56:57.671Z,64.00
2022-11-25T11:57:57.609Z,68.00
2022-11-25T11:58:57.666Z,68.00
2022-11-25T11:59:57.581Z,68.00
2022-11-25T12:00:57.611Z,72.00
2022-11-25T12:01:57.611Z,72.00
2022-11-25T12:02:57.601Z,72.00
2022-11-25T12:03:57.523Z,72.00
2022-11-25T12:04:57.544Z,72.00
2022-11-25T12:05:57.522Z,80.00
2022-11-25T12:06:57.563Z,76.00
2022-11-25T12:07:57.533Z,80.00
2022-11-25T12:08:57.495Z,84.00
2022-11-25T12:09:57.452Z,88.00
2022-11-25T12:10:57.468Z,88.00
2022-11-25T12:11:57.417Z,84.00
2022-11-25T12:12:57.463Z,84.00
2022-11-25T12:14:00.798Z,80.00
2022-11-25T12:14:57.399Z,84.00
2022-11-25T12:15:57.436Z,76.00
2022-11-25T12:16:57.380Z,88.00
2022-11-25T12:17:57.375Z,80.00
2022-11-25T12:18:57.358Z,80.00
2022-11-25T12:19:57.309Z,84.00
2022-11-25T12:20:57.328Z,96.00
2022-11-25T12:21:57.311Z,108.00
2022-11-25T12:22:57.342Z,132.00
2022-11-25T12:23:57.306Z,156.00
2022-11-25T12:24:57.285Z,164.00
2022-11-25T12:25:57.239Z,180.00
2022-11-25T12:26:57.249Z,168.00
2022-11-25T12:27:57.220Z,148.00
2022-11-25T12:28:57.258Z,144.00
2022-11-25T12:29:57.208Z,128.00
2022-11-25T12:31:01.890Z,148.00
2022-11-25T12:31:57.228Z,144.00
2022-11-25T12:32:57.220Z,152.00
2022-11-25T12:33:57.134Z,136.00
2022-11-25T12:34:57.154Z,112.00
2022-11-25T12:35:57.106Z,120.00
2022-11-25T12:36:57.124Z,116.00
2022-11-25T12:37:57.143Z,124.00
2022-11-25T12:38:57.111Z,140.00
2022-11-25T12:39:57.079Z,140.00
2022-11-25T12:40:57.094Z,140.00
2022-11-25T12:41:57.055Z,152.00
2022-11-25T12:42:57.040Z,152.00
2022-11-25T12:43:57.004Z,144.00
2022-11-25T12:44:57.044Z,136.00
2022-11-25T12:45:57.079Z,132.00
2022-11-25T12:46:56.986Z,124.00
2022-11-25T12:47:56.961Z,116.00
2022-11-25T12:48:56.962Z,104.00
2022-11-25T12:49:56.963Z,100.00
2022-11-25T12:50:56.957Z,96.00
2022-11-25T12:51:56.926Z,100.00
2022-11-25T12:52:56.912Z,100.00
2022-11-25T12:53:56.910Z,100.00
2022-11-25T12:54:56.884Z,96.00
2022-11-25T12:55:56.867Z,96.00
2022-11-25T12:56:56.869Z,88.00
2022-11-25T12:57:56.812Z,84.00
2022-11-25T12:58:56.949Z,88.00
2022-11-25T13:00:17.523Z,84.00
2022-11-25T13:00:56.894Z,84.00
2022-11-25T13:01:56.973Z,84.00
2022-11-25T13:02:56.825Z,84.00
2022-11-25T13:03:56.737Z,84.00
2022-11-25T13:05:07.631Z,84.00
2022-11-25T13:05:56.748Z,88.00